Atlantic Aquarius — VRDX6 — position and weather

sailwx.info

Track history (hours):
 
Tides and Currents Weather Stations Pressure Air Temp Water Temp Dewpoint Dewpoint Depression Visibility Wind Speed Wind Dir Waves Ship Positions

Atlantic Aquarius

Last reported at 2016-Aug-28 08:33 UTC. Time now 2016-Aug-28 20:41 UTC.
Position N 33°46' W 118°13'.

Length 183 m; draft 10.6 m.

Type: Tanker. MMSI: 477071400.

Date/timePositionNaut miles runAvg speedWind from/ knotsBaromVisibWave heightAir tempDewpointWater temp
2016-Aug-28 08:33N 33°46' W 118°13'1 0.6
2016-Aug-28 07:33N 33°46' W 118°13'5 4.8
2016-Aug-28 06:31N 33°42' W 118°11'6 6.2
2016-Aug-28 05:29N 33°36' W 118°15'9 9.1
2016-Aug-28 04:33N 33°34' W 118°25'10 9.9
2016-Aug-28 03:33N 33°36' W 118°37'1211.7
2016-Aug-28 02:32N 33°39' W 118°50'1411.7
2016-Aug-28 01:21N 33°40' W 119°07'2212.3
2016-Aug-27 23:33N 33°37' W 119°33'1412.8
2016-Aug-27 22:29N 33°36' W 119°50'30 9.5
2016-Aug-27 19:19N 33°33' W 120°25'12212.5
2016-Aug-27 09:33N 34°39' W 122°29'1312.9
2016-Aug-27 08:33N 34°50' W 122°38'1312.9
2016-Aug-27 07:33N 35°01' W 122°47'1312.7
2016-Aug-27 06:33N 35°12' W 122°54'2512.7
2016-Aug-27 04:33N 35°37' W 123°01'1312.6
2016-Aug-27 03:33N 35°49' W 123°05'1312.7
2016-Aug-27 02:33N 36°01' W 123°09'1212.3
2016-Aug-27 01:33N 36°13' W 123°13'1312.5
2016-Aug-27 00:31N 36°26' W 123°16'1212.3
2016-Aug-26 23:33N 36°37' W 123°20'1212.1
2016-Aug-26 22:33N 36°49' W 123°24'1212.3
2016-Aug-26 21:33N 37°01' W 123°27'1211.9
2016-Aug-26 20:33N 37°12' W 123°31'10 9.9
2016-Aug-26 19:33N 37°22' W 123°27'1312.5
2016-Aug-26 18:33N 37°29' W 123°14'1212.1
2016-Aug-26 17:33N 37°36' W 123°02'1312.5
2016-Aug-26 16:33N 37°42' W 122°48'1010.5
2016-Aug-26 15:33N 37°46' W 122°36'1010.1
2016-Aug-26 14:33N 37°50' W 122°24'4 4.2
2016-Aug-26 13:33N 37°46' W 122°21'0 0.1
2016-Aug-26 12:33N 37°46' W 122°21'0 0.0
2016-Aug-26 11:33N 37°46' W 122°21'0 0.0
2016-Aug-26 10:33N 37°46' W 122°21'0 0.2
2016-Aug-26 09:33N 37°46' W 122°21'0 0.1
2016-Aug-26 08:33N 37°46' W 122°21'0 0.0
2016-Aug-26 07:30N 37°46' W 122°21'7 7.5
2016-Aug-26 06:33N 37°53' W 122°25'16 7.3
2016-Aug-26 04:23N 38°02' W 122°09'  
2016-Aug-23 10:33N 38°03' W 122°05'2 1.8
2016-Aug-23 09:30N 38°02' W 122°08'1010.8
2016-Aug-23 08:33N 38°03' W 122°20'1111.1
2016-Aug-23 07:33N 37°52' W 122°25'9 9.4
2016-Aug-23 06:33N 37°47' W 122°35'1110.6
2016-Aug-23 05:33N 37°41' W 122°46'1110.6
2016-Aug-23 04:33N 37°35' W 122°57'1010.3
2016-Aug-23 03:33N 37°30' W 123°08'1211.5
2016-Aug-23 02:33N 37°23' W 123°20'1212.5
2016-Aug-23 01:33N 37°15' W 123°32'1413.5
2016-Aug-23 00:33N 37°02' W 123°34'1313.2
2016-Aug-22 23:33N 36°49' W 123°37'1313.0
2016-Aug-22 22:33N 36°36' W 123°40'1312.7
2016-Aug-22 21:33N 36°23' W 123°42'1412.5
2016-Aug-22 20:27N 36°10' W 123°45'1111.7
2016-Aug-22 19:33N 35°59' W 123°46'1 1.1
2016-Aug-22 18:33N 35°59' W 123°47'6 5.9
2016-Aug-22 17:33N 35°53' W 123°50'1412.6
2016-Aug-22 16:25N 35°39' W 123°54'7611.9
2016-Aug-22 10:05N 34°26' W 124°17'911.5
2016-Aug-22 09:18N 34°17' W 124°20'912.0
2016-Aug-22 08:33N 34°08' W 124°22'  
2016-Aug-19 19:11N 31°46' W 124°41'117 9.3
2016-Aug-19 06:32N 29°55' W 125°27'  
Track history (hours):
 
Tides and Currents Weather Stations Pressure Air Temp Water Temp Dewpoint Dewpoint Depression Visibility Wind Speed Wind Dir Waves Ship Positions

Atlantic Aquarius

Last reported at 2016-Aug-28 08:33 UTC. Time now 2016-Aug-28 20:41 UTC.
Position N 33°46' W 118°13'.

Length 183 m; draft 10.6 m.

Type: Tanker. MMSI: 477071400.

Date/timePositionNaut miles runAvg speedWind from/ knotsBaromVisibWave heightAir tempDewpointWater temp
2016-Aug-28 08:33N 33°46' W 118°13'1 0.6
2016-Aug-28 07:33N 33°46' W 118°13'5 4.8
2016-Aug-28 06:31N 33°42' W 118°11'6 6.2
2016-Aug-28 05:29N 33°36' W 118°15'9 9.1
2016-Aug-28 04:33N 33°34' W 118°25'10 9.9
2016-Aug-28 03:33N 33°36' W 118°37'1211.7
2016-Aug-28 02:32N 33°39' W 118°50'1411.7
2016-Aug-28 01:21N 33°40' W 119°07'2212.3
2016-Aug-27 23:33N 33°37' W 119°33'1412.8
2016-Aug-27 22:29N 33°36' W 119°50'30 9.5
2016-Aug-27 19:19N 33°33' W 120°25'12212.5
2016-Aug-27 09:33N 34°39' W 122°29'1312.9
2016-Aug-27 08:33N 34°50' W 122°38'1312.9
2016-Aug-27 07:33N 35°01' W 122°47'1312.7
2016-Aug-27 06:33N 35°12' W 122°54'2512.7
2016-Aug-27 04:33N 35°37' W 123°01'1312.6
2016-Aug-27 03:33N 35°49' W 123°05'1312.7
2016-Aug-27 02:33N 36°01' W 123°09'1212.3
2016-Aug-27 01:33N 36°13' W 123°13'1312.5
2016-Aug-27 00:31N 36°26' W 123°16'1212.3
2016-Aug-26 23:33N 36°37' W 123°20'1212.1
2016-Aug-26 22:33N 36°49' W 123°24'1212.3
2016-Aug-26 21:33N 37°01' W 123°27'1211.9
2016-Aug-26 20:33N 37°12' W 123°31'10 9.9
2016-Aug-26 19:33N 37°22' W 123°27'1312.5
2016-Aug-26 18:33N 37°29' W 123°14'1212.1
2016-Aug-26 17:33N 37°36' W 123°02'1312.5
2016-Aug-26 16:33N 37°42' W 122°48'1010.5
2016-Aug-26 15:33N 37°46' W 122°36'1010.1
2016-Aug-26 14:33N 37°50' W 122°24'4 4.2
2016-Aug-26 13:33N 37°46' W 122°21'0 0.1
2016-Aug-26 12:33N 37°46' W 122°21'0 0.0
2016-Aug-26 11:33N 37°46' W 122°21'0 0.0
2016-Aug-26 10:33N 37°46' W 122°21'0 0.2
2016-Aug-26 09:33N 37°46' W 122°21'0 0.1
2016-Aug-26 08:33N 37°46' W 122°21'0 0.0
2016-Aug-26 07:30N 37°46' W 122°21'7 7.5
2016-Aug-26 06:33N 37°53' W 122°25'16 7.3
2016-Aug-26 04:23N 38°02' W 122°09'  
2016-Aug-23 10:33N 38°03' W 122°05'2 1.8
2016-Aug-23 09:30N 38°02' W 122°08'1010.8
2016-Aug-23 08:33N 38°03' W 122°20'1111.1
2016-Aug-23 07:33N 37°52' W 122°25'9 9.4
2016-Aug-23 06:33N 37°47' W 122°35'1110.6
2016-Aug-23 05:33N 37°41' W 122°46'1110.6
2016-Aug-23 04:33N 37°35' W 122°57'1010.3
2016-Aug-23 03:33N 37°30' W 123°08'1211.5
2016-Aug-23 02:33N 37°23' W 123°20'1212.5
2016-Aug-23 01:33N 37°15' W 123°32'1413.5
2016-Aug-23 00:33N 37°02' W 123°34'1313.2
2016-Aug-22 23:33N 36°49' W 123°37'1313.0
2016-Aug-22 22:33N 36°36' W 123°40'1312.7
2016-Aug-22 21:33N 36°23' W 123°42'1412.5
2016-Aug-22 20:27N 36°10' W 123°45'1111.7
2016-Aug-22 19:33N 35°59' W 123°46'1 1.1
2016-Aug-22 18:33N 35°59' W 123°47'6 5.9
2016-Aug-22 17:33N 35°53' W 123°50'1412.6
2016-Aug-22 16:25N 35°39' W 123°54'7611.9
2016-Aug-22 10:05N 34°26' W 124°17'911.5
2016-Aug-22 09:18N 34°17' W 124°20'912.0
2016-Aug-22 08:33N 34°08' W 124°22'  
2016-Aug-19 19:11N 31°46' W 124°41'117 9.3
2016-Aug-19 06:32N 29°55' W 125°27'  

Dump ship's entire track history